Time;durP1;ratioP1;P1;durP2;ratioP2;P2;SDS_P1;SDS_P2;PMS_P1;PMS_P2;Temp;Humidity;BMP_temperature;BMP_pressure;BME280_temperature;BME280_humidity;BME280_pressure;Samples;Min_cycle;Max_cycle;Signal;HPM_P1;HPM_P2
2023/09/12 00:00:54;;;;;;;47.97;29.40;;;19.90;99.90;;;;;;6210751;23;20720;-68
2023/09/12 00:03:21;;;;;;;44.35;29.58;;;19.90;99.90;;;;;;6210994;23;20092;-69
2023/09/12 00:05:54;;;;;;;43.75;29.17;;;19.90;99.90;;;;;;6211026;23;20158;-69
2023/09/12 00:08:20;;;;;;;41.60;27.80;;;19.90;99.90;;;;;;6210906;23;20017;-69
2023/09/12 00:10:46;;;;;;;41.92;27.95;;;19.90;99.90;;;;;;6184007;23;20017;-69
2023/09/12 00:13:12;;;;;;;43.53;27.00;;;19.70;99.90;;;;;;6210717;23;20092;-69
2023/09/12 00:15:38;;;;;;;47.72;29.77;;;19.70;99.90;;;;;;6210922;23;20093;-69
2023/09/12 00:18:04;;;;;;;46.22;29.35;;;19.60;99.90;;;;;;6210524;23;20399;-69
2023/09/12 00:20:30;;;;;;;43.30;28.80;;;19.60;99.90;;;;;;6210946;23;20055;-69
2023/09/12 00:22:56;;;;;;;46.25;29.58;;;19.50;99.90;;;;;;6210937;23;20395;-69
2023/09/12 00:25:21;;;;;;;45.78;29.40;;;19.50;99.90;;;;;;6184063;23;20016;-69
2023/09/12 00:27:47;;;;;;;43.60;29.65;;;19.50;99.90;;;;;;6210679;23;20407;-69
2023/09/12 00:30:16;;;;;;;46.10;29.20;;;19.60;99.90;;;;;;6211119;23;20024;-69
2023/09/12 00:32:42;;;;;;;44.70;29.55;;;19.60;99.90;;;;;;6210831;23;20025;-69
2023/09/12 00:35:08;;;;;;;48.15;30.15;;;19.60;99.90;;;;;;6211202;23;20082;-69
2023/09/12 00:37:33;;;;;;;49.25;30.48;;;19.60;99.90;;;;;;6210952;23;20074;-69
2023/09/12 00:39:59;;;;;;;45.97;29.73;;;19.50;99.90;;;;;;6184458;23;20020;-69
2023/09/12 00:42:28;;;;;;;48.75;31.20;;;19.60;99.90;;;;;;6210748;23;20031;-69
2023/09/12 00:44:53;;;;;;;53.38;32.17;;;19.60;99.90;;;;;;6211198;23;20456;-69
2023/09/12 00:47:21;;;;;;;50.50;31.52;;;19.60;99.90;;;;;;6210842;23;20020;-69
2023/09/12 00:49:49;;;;;;;50.83;30.95;;;19.60;99.90;;;;;;6210488;23;20047;-69
2023/09/12 00:52:15;;;;;;;50.92;32.40;;;19.50;99.90;;;;;;6210788;23;20028;-70
2023/09/12 00:54:41;;;;;;;50.92;32.00;;;19.50;99.90;;;;;;6210631;23;20492;-69
2023/09/12 00:57:07;;;;;;;48.67;31.17;;;19.60;99.90;;;;;;6184074;23;20027;-69
2023/09/12 00:59:33;;;;;;;56.40;30.83;;;19.60;99.90;;;;;;6184050;23;20139;-73
2023/09/12 01:01:59;;;;;;;48.40;30.95;;;19.60;99.90;;;;;;6183901;23;20067;-72
2023/09/12 01:04:26;;;;;;;49.70;31.77;;;19.60;99.90;;;;;;6184114;23;20559;-71
2023/09/12 01:06:52;;;;;;;48.90;31.23;;;19.70;99.90;;;;;;6211025;23;20017;-73
2023/09/12 01:09:18;;;;;;;45.00;29.63;;;19.70;99.90;;;;;;6210641;23;20551;-71
2023/09/12 01:11:44;;;;;;;46.95;31.42;;;19.70;99.90;;;;;;6210680;23;20100;-69
2023/09/12 01:14:10;;;;;;;49.70;30.75;;;19.70;99.90;;;;;;6183613;23;20056;-68
2023/09/12 01:16:35;;;;;;;44.90;30.13;;;19.70;99.90;;;;;;6210738;23;20044;-68
2023/09/12 01:19:02;;;;;;;47.75;30.55;;;19.70;99.90;;;;;;6210452;23;20083;-68
2023/09/12 01:21:42;;;;;;;45.38;28.13;;;19.60;99.90;;;;;;6210743;23;20016;-68
2023/09/12 01:24:08;;;;;;;46.28;29.88;;;19.50;99.90;;;;;;6210563;23;20055;-68
2023/09/12 01:27:08;;;;;;;47.63;30.38;;;19.50;99.90;;;;;;6209883;23;20460;-68
2023/09/12 01:29:35;;;;;;;50.03;29.80;;;19.50;99.90;;;;;;6210672;23;20752;-68
2023/09/12 01:32:02;;;;;;;46.38;30.20;;;19.50;99.90;;;;;;6210482;23;20322;-68
2023/09/12 01:34:28;;;;;;;44.08;29.30;;;19.40;99.90;;;;;;6210241;23;20091;-68
2023/09/12 01:36:54;;;;;;;41.63;27.73;;;19.40;99.90;;;;;;6210573;23;20052;-68
2023/09/12 01:39:20;;;;;;;46.33;28.48;;;19.40;99.90;;;;;;6183402;23;20025;-67
2023/09/12 01:41:48;;;;;;;45.40;29.58;;;19.40;99.90;;;;;;6210234;23;20098;-68
2023/09/12 01:44:14;;;;;;;47.33;27.60;;;19.40;99.90;;;;;;6210193;23;20096;-69
2023/09/12 01:46:42;;;;;;;41.63;28.20;;;19.30;99.90;;;;;;6210641;23;20016;-67
2023/09/12 01:49:10;;;;;;;42.25;28.33;;;19.30;99.90;;;;;;6210821;23;20079;-68
2023/09/12 01:51:36;;;;;;;41.42;28.05;;;19.30;99.90;;;;;;6212460;23;20020;-68
2023/09/12 01:54:03;;;;;;;41.53;26.15;;;19.20;99.90;;;;;;6212387;23;20577;-68
2023/09/12 01:56:30;;;;;;;44.50;28.30;;;19.20;99.90;;;;;;6212145;23;20135;-69
2023/09/12 01:58:56;;;;;;;43.95;27.80;;;19.10;99.90;;;;;;6212348;23;20075;-69
2023/09/12 02:01:22;;;;;;;41.22;27.45;;;19.10;99.90;;;;;;6212211;23;20091;-69
2023/09/12 02:03:48;;;;;;;43.22;28.05;;;19.10;99.90;;;;;;6212537;23;20059;-69
2023/09/12 02:06:13;;;;;;;39.05;27.35;;;19.10;99.90;;;;;;6212439;23;20086;-69
2023/09/12 02:08:39;;;;;;;40.20;27.92;;;19.10;99.90;;;;;;6185443;23;20036;-69
2023/09/12 02:11:05;;;;;;;45.60;29.15;;;19.10;99.90;;;;;;6211918;23;20024;-69
2023/09/12 02:13:31;;;;;;;45.95;29.98;;;19.10;99.90;;;;;;6185364;23;20107;-69
2023/09/12 02:16:00;;;;;;;49.80;27.98;;;19.10;99.90;;;;;;6212012;23;20112;-68
2023/09/12 02:18:26;;;;;;;42.63;28.75;;;19.10;99.90;;;;;;6185557;23;20016;-69
2023/09/12 02:20:52;;;;;;;43.05;28.17;;;19.10;99.90;;;;;;6211857;23;20095;-69
2023/09/12 02:23:17;;;;;;;47.00;28.05;;;19.10;99.90;;;;;;6212270;23;20785;-69
2023/09/12 02:25:43;;;;;;;43.90;28.75;;;19.10;99.90;;;;;;6184625;23;20021;-69
2023/09/12 02:28:09;;;;;;;53.78;30.17;;;19.10;99.90;;;;;;6212149;23;20074;-69
2023/09/12 02:30:37;;;;;;;49.78;29.17;;;19.10;99.90;;;;;;6185131;23;20020;-69
2023/09/12 02:33:03;;;;;;;48.75;30.05;;;19.10;99.90;;;;;;6185176;23;20095;-69
2023/09/12 02:35:29;;;;;;;44.05;28.95;;;19.10;99.90;;;;;;6211964;23;20056;-69
2023/09/12 02:37:54;;;;;;;48.10;29.67;;;19.10;99.90;;;;;;6211812;23;20056;-69
2023/09/12 02:40:20;;;;;;;49.30;29.48;;;19.10;99.90;;;;;;6211837;23;20024;-69
2023/09/12 02:42:46;;;;;;;50.72;30.17;;;19.10;99.90;;;;;;6212074;23;20016;-69
2023/09/12 02:45:11;;;;;;;48.60;29.25;;;19.10;99.90;;;;;;6212151;23;20091;-69
2023/09/12 02:47:37;;;;;;;45.95;27.95;;;19.10;99.90;;;;;;6212095;23;20317;-69
2023/09/12 02:50:03;;;;;;;43.95;26.92;;;19.00;99.90;;;;;;6211325;23;20411;-69
2023/09/12 02:52:29;;;;;;;41.25;27.77;;;19.00;99.90;;;;;;6212103;23;20020;-69
2023/09/12 02:54:55;;;;;;;45.63;26.45;;;19.00;99.90;;;;;;6211893;23;20119;-69
2023/09/12 02:57:21;;;;;;;33.75;25.70;;;19.00;99.90;;;;;;6211776;23;20067;-69
2023/09/12 02:59:47;;;;;;;42.53;27.35;;;18.90;99.90;;;;;;6184654;23;20033;-69
2023/09/12 03:02:12;;;;;;;40.28;28.38;;;19.00;99.90;;;;;;6184923;23;20021;-69
2023/09/12 03:04:38;;;;;;;47.80;27.23;;;19.00;99.90;;;;;;6185382;23;20512;-69
2023/09/12 03:07:04;;;;;;;41.58;28.02;;;19.00;99.90;;;;;;6184846;23;20017;-69
2023/09/12 03:09:29;;;;;;;41.60;29.25;;;19.00;99.90;;;;;;6184840;23;20364;-69
2023/09/12 03:11:55;;;;;;;54.40;29.65;;;19.00;99.90;;;;;;6185012;23;20027;-69
2023/09/12 03:14:21;;;;;;;52.65;29.00;;;19.00;99.90;;;;;;6212077;23;20050;-69
2023/09/12 03:16:46;;;;;;;42.50;28.60;;;19.00;99.90;;;;;;6212045;23;20451;-69
2023/09/12 03:19:12;;;;;;;51.10;28.90;;;19.00;99.90;;;;;;6212832;23;20059;-69
2023/09/12 03:21:38;;;;;;;42.10;28.70;;;18.90;99.90;;;;;;6211749;23;20020;-69
2023/09/12 03:24:04;;;;;;;64.18;29.00;;;19.00;99.90;;;;;;6211597;23;20043;-69
2023/09/12 03:26:30;;;;;;;58.47;29.65;;;18.90;99.90;;;;;;6211460;23;20016;-69
2023/09/12 03:28:56;;;;;;;44.75;27.95;;;18.90;99.90;;;;;;6211388;23;20074;-69
2023/09/12 03:31:22;;;;;;;40.55;27.60;;;19.00;99.90;;;;;;6211876;23;20021;-69
2023/09/12 03:33:50;;;;;;;40.70;28.40;;;19.00;99.90;;;;;;6184584;23;20021;-69
2023/09/12 03:36:19;;;;;;;42.50;28.15;;;19.00;99.90;;;;;;6211500;23;20013;-69
2023/09/12 03:38:45;;;;;;;42.83;26.80;;;19.00;99.90;;;;;;6184603;23;20027;-69
2023/09/12 03:41:11;;;;;;;38.60;27.25;;;19.00;99.90;;;;;;6211750;23;20013;-68
2023/09/12 03:43:37;;;;;;;42.92;26.88;;;18.90;99.90;;;;;;6184688;23;20088;-68
2023/09/12 03:46:03;;;;;;;47.35;26.73;;;18.90;99.90;;;;;;6159824;23;20047;-69
2023/09/12 03:48:33;;;;;;;43.28;29.83;;;19.00;99.90;;;;;;6211345;23;20020;-69
2023/09/12 03:50:59;;;;;;;35.30;26.38;;;19.00;99.90;;;;;;6210808;23;20031;-69
2023/09/12 03:53:26;;;;;;;44.85;28.27;;;19.00;99.90;;;;;;6184399;23;20099;-69
2023/09/12 03:55:52;;;;;;;36.17;27.50;;;19.00;99.90;;;;;;6184569;23;20020;-69
2023/09/12 03:58:18;;;;;;;47.25;27.63;;;19.00;99.90;;;;;;6211666;23;20063;-69
2023/09/12 04:00:43;;;;;;;45.58;28.40;;;19.00;99.90;;;;;;6211115;23;20373;-69
2023/09/12 04:03:09;;;;;;;48.13;27.50;;;18.90;99.90;;;;;;6211549;23;20020;-69
2023/09/12 04:05:35;;;;;;;36.70;27.27;;;18.90;99.90;;;;;;6211103;23;20384;-69
2023/09/12 04:08:00;;;;;;;39.63;26.65;;;18.90;99.90;;;;;;6185306;23;20020;-69
2023/09/12 04:10:26;;;;;;;42.17;27.85;;;18.90;99.90;;;;;;6184998;23;20016;-69
2023/09/12 04:12:52;;;;;;;39.92;27.77;;;18.90;99.90;;;;;;6211087;23;20056;-69
2023/09/12 04:15:17;;;;;;;42.92;26.42;;;19.00;99.90;;;;;;6211852;23;20017;-69
2023/09/12 04:17:43;;;;;;;40.72;27.17;;;19.00;99.90;;;;;;6211425;23;20023;-69
2023/09/12 04:20:10;;;;;;;38.47;27.50;;;19.00;99.90;;;;;;6184043;23;20127;-69
2023/09/12 04:22:37;;;;;;;47.10;27.25;;;18.90;99.90;;;;;;6184442;23;20039;-69
2023/09/12 04:25:03;;;;;;;40.53;27.52;;;18.90;99.90;;;;;;6210914;23;20033;-69
2023/09/12 04:27:29;;;;;;;52.95;28.08;;;18.90;99.90;;;;;;6210906;23;20027;-69
2023/09/12 04:29:55;;;;;;;40.63;26.10;;;18.90;99.90;;;;;;6211295;23;20048;-69
2023/09/12 04:32:23;;;;;;;39.83;26.27;;;18.90;99.90;;;;;;6211177;23;20012;-69
2023/09/12 04:34:49;;;;;;;46.22;27.50;;;18.80;99.90;;;;;;6210868;23;20048;-69
2023/09/12 04:37:15;;;;;;;42.65;26.67;;;18.90;99.90;;;;;;6211092;23;20021;-68
2023/09/12 04:39:41;;;;;;;43.97;27.25;;;18.90;99.90;;;;;;6183887;23;20128;-69
2023/09/12 04:42:06;;;;;;;43.97;26.67;;;18.80;99.90;;;;;;6211169;23;20017;-69
2023/09/12 04:44:36;;;;;;;37.20;25.45;;;18.80;99.90;;;;;;6184140;23;20348;-69
2023/09/12 04:47:02;;;;;;;41.97;27.65;;;18.80;99.90;;;;;;6210888;23;20012;-69
2023/09/12 04:49:28;;;;;;;47.22;26.90;;;18.80;99.90;;;;;;6210959;23;20059;-69
2023/09/12 04:51:54;;;;;;;40.65;26.30;;;18.90;99.90;;;;;;6211171;23;20452;-69
2023/09/12 04:54:20;;;;;;;37.83;25.65;;;18.80;99.90;;;;;;6184749;23;20032;-69
2023/09/12 04:56:45;;;;;;;38.70;26.20;;;18.80;99.90;;;;;;6211196;23;20467;-69
2023/09/12 04:59:11;;;;;;;43.20;27.58;;;18.80;99.90;;;;;;6211105;23;20021;-69
2023/09/12 05:01:37;;;;;;;39.50;26.67;;;18.80;99.90;;;;;;6211224;23;20102;-69
2023/09/12 05:04:03;;;;;;;46.15;26.67;;;18.80;99.90;;;;;;6211020;23;20024;-69
2023/09/12 05:06:29;;;;;;;40.67;26.58;;;18.70;99.90;;;;;;6211190;23;20020;-69
2023/09/12 05:08:54;;;;;;;40.95;26.38;;;18.70;99.90;;;;;;6211385;23;20456;-69
2023/09/12 05:11:23;;;;;;;40.42;26.27;;;18.80;99.90;;;;;;6211569;23;20016;-68
2023/09/12 05:13:48;;;;;;;43.17;27.83;;;18.70;99.90;;;;;;6184566;23;20411;-69
2023/09/12 05:16:14;;;;;;;43.63;27.13;;;18.80;99.90;;;;;;6210903;23;20074;-69
2023/09/12 05:18:40;;;;;;;46.10;27.83;;;18.70;99.90;;;;;;6210749;23;20016;-69
2023/09/12 05:21:05;;;;;;;44.40;27.23;;;18.80;99.90;;;;;;6211083;23;20441;-68
2023/09/12 05:23:31;;;;;;;47.05;27.95;;;18.70;99.90;;;;;;6210873;23;20013;-69
2023/09/12 05:25:57;;;;;;;44.58;27.60;;;18.60;99.90;;;;;;6212581;23;20017;-69
2023/09/12 05:28:22;;;;;;;44.92;28.08;;;18.70;99.90;;;;;;6212863;23;20044;-69
2023/09/12 05:30:48;;;;;;;44.38;28.02;;;18.70;99.90;;;;;;6212647;23;20086;-69
2023/09/12 05:33:17;;;;;;;48.20;29.75;;;18.60;99.90;;;;;;6212342;23;20331;-69
2023/09/12 05:35:44;;;;;;;51.22;29.88;;;18.60;99.90;;;;;;6212352;23;20020;-69
2023/09/12 05:38:10;;;;;;;47.67;29.23;;;18.70;99.90;;;;;;6212165;23;20028;-69
2023/09/12 05:40:36;;;;;;;48.53;29.83;;;18.70;99.90;;;;;;6212692;23;20043;-69
2023/09/12 05:43:01;;;;;;;60.15;30.30;;;18.70;99.90;;;;;;6212518;23;20440;-69
2023/09/12 05:45:30;;;;;;;51.08;29.90;;;18.70;99.90;;;;;;6212769;23;20025;-69
2023/09/12 05:47:56;;;;;;;50.67;30.33;;;18.60;99.90;;;;;;6212442;23;20100;-69
2023/09/12 05:50:23;;;;;;;54.33;31.67;;;18.70;99.90;;;;;;6180487;23;20445;-69
2023/09/12 05:52:48;;;;;;;59.60;32.58;;;18.70;99.90;;;;;;6212424;23;20056;-69
2023/09/12 05:55:14;;;;;;;53.72;30.13;;;18.70;99.90;;;;;;6212687;23;20020;-68
2023/09/12 05:57:40;;;;;;;59.88;33.25;;;18.70;99.90;;;;;;6212214;23;20457;-69
2023/09/12 06:00:10;;;;;;;57.00;30.73;;;18.70;99.90;;;;;;6212111;23;20028;-69
2023/09/12 06:02:35;;;;;;;54.10;30.92;;;18.70;99.90;;;;;;6212009;23;20020;-69
2023/09/12 06:05:01;;;;;;;49.58;29.48;;;18.80;99.90;;;;;;6212693;23;20028;-69
2023/09/12 06:07:27;;;;;;;55.33;31.55;;;18.80;99.90;;;;;;6212556;23;20035;-69
2023/09/12 06:09:53;;;;;;;56.97;32.38;;;18.80;99.90;;;;;;6212434;23;20109;-69
2023/09/12 06:12:18;;;;;;;56.22;30.65;;;18.80;99.90;;;;;;6212254;23;20376;-69
2023/09/12 06:14:44;;;;;;;54.95;31.67;;;18.80;99.90;;;;;;6212408;23;20112;-68
2023/09/12 06:17:10;;;;;;;58.05;30.65;;;18.70;99.90;;;;;;6185076;23;20035;-69
2023/09/12 06:19:35;;;;;;;54.20;31.80;;;18.80;99.90;;;;;;6212302;23;20029;-69
2023/09/12 06:22:02;;;;;;;53.33;31.67;;;18.80;99.90;;;;;;6212196;23;20020;-69
2023/09/12 06:24:27;;;;;;;55.95;31.73;;;18.80;99.90;;;;;;6211516;23;20025;-69
2023/09/12 06:26:53;;;;;;;53.20;31.30;;;18.80;99.90;;;;;;6211664;23;20019;-69
2023/09/12 06:29:19;;;;;;;50.60;30.38;;;18.90;99.90;;;;;;6212101;23;20086;-68
2023/09/12 06:31:44;;;;;;;54.08;30.67;;;18.90;99.90;;;;;;6211407;23;20028;-69
2023/09/12 06:34:10;;;;;;;53.10;30.23;;;18.90;99.90;;;;;;6211825;23;20048;-69
2023/09/12 06:36:37;;;;;;;53.63;31.23;;;18.80;99.90;;;;;;6211774;23;20039;-69
2023/09/12 06:39:05;;;;;;;50.60;29.60;;;18.80;99.90;;;;;;6211668;23;20099;-69
2023/09/12 06:41:30;;;;;;;51.97;31.35;;;18.80;99.90;;;;;;6211500;23;20062;-69
2023/09/12 06:43:58;;;;;;;50.88;29.73;;;18.80;99.90;;;;;;6184834;23;20088;-69
2023/09/12 06:46:24;;;;;;;54.05;31.42;;;18.80;99.90;;;;;;6184329;23;20487;-69
2023/09/12 06:48:50;;;;;;;55.45;30.20;;;18.80;99.90;;;;;;6184359;23;20368;-69
2023/09/12 06:51:17;;;;;;;54.40;30.70;;;18.90;99.90;;;;;;6211521;23;20025;-69
2023/09/12 06:53:43;;;;;;;51.92;29.42;;;18.80;99.90;;;;;;6211738;23;20052;-69
2023/09/12 06:56:09;;;;;;;55.60;30.42;;;18.90;99.90;;;;;;6211569;23;20154;-69
2023/09/12 06:58:35;;;;;;;56.47;31.88;;;18.90;99.90;;;;;;6211754;23;20078;-69
2023/09/12 07:01:07;;;;;;;60.88;32.67;;;19.00;99.90;;;;;;6211328;23;20336;-69
2023/09/12 07:03:34;;;;;;;58.50;32.28;;;19.00;99.90;;;;;;6211719;23;20047;-69
2023/09/12 07:06:00;;;;;;;59.50;33.25;;;19.00;99.90;;;;;;6211444;23;20020;-69
2023/09/12 07:08:26;;;;;;;63.72;32.75;;;19.10;99.90;;;;;;6211695;23;20034;-69
2023/09/12 07:10:54;;;;;;;60.03;32.17;;;19.10;99.90;;;;;;6185027;23;20021;-69
2023/09/12 07:13:21;;;;;;;64.22;33.25;;;19.20;99.90;;;;;;6211686;23;20020;-68
2023/09/12 07:15:47;;;;;;;66.55;33.40;;;19.10;99.90;;;;;;6211133;23;20520;-69
2023/09/12 07:18:14;;;;;;;61.95;32.90;;;19.20;99.90;;;;;;6211551;23;20063;-69
2023/09/12 07:20:41;;;;;;;70.80;34.63;;;19.10;99.90;;;;;;6211540;23;20429;-69
2023/09/12 07:23:07;;;;;;;67.07;32.15;;;19.20;99.90;;;;;;6211353;23;20013;-69
2023/09/12 07:25:40;;;;;;;59.65;32.22;;;19.20;99.90;;;;;;6210867;23;20460;-69
2023/09/12 07:28:09;;;;;;;63.30;32.25;;;19.20;99.90;;;;;;6211600;23;20016;-69
2023/09/12 07:30:36;;;;;;;61.38;32.03;;;19.10;99.90;;;;;;6211282;23;20028;-69
2023/09/12 07:33:04;;;;;;;58.95;31.65;;;19.20;99.90;;;;;;6211512;23;20020;-69
2023/09/12 07:35:30;;;;;;;63.42;30.70;;;19.20;99.90;;;;;;6184564;23;20025;-69
2023/09/12 07:37:56;;;;;;;61.55;31.52;;;19.30;99.90;;;;;;6211415;23;20385;-69
2023/09/12 07:40:22;;;;;;;57.60;31.60;;;19.20;99.90;;;;;;6211298;23;20024;-69
2023/09/12 07:42:48;;;;;;;60.08;31.73;;;19.20;99.90;;;;;;6211182;23;20442;-69
2023/09/12 07:45:13;;;;;;;61.15;31.70;;;19.20;99.90;;;;;;6211332;23;20023;-69
2023/09/12 07:47:39;;;;;;;62.42;31.65;;;19.20;99.90;;;;;;6183630;23;20024;-69
2023/09/12 07:50:06;;;;;;;62.03;33.30;;;19.20;99.90;;;;;;6210784;23;20079;-69
2023/09/12 07:52:32;;;;;;;59.42;30.88;;;19.20;99.90;;;;;;6184621;23;20344;-69
2023/09/12 07:55:02;;;;;;;59.30;30.48;;;19.20;99.90;;;;;;6184559;23;20690;-69
2023/09/12 07:57:29;;;;;;;59.22;31.40;;;19.20;99.90;;;;;;6211322;23;20723;-69
2023/09/12 07:59:55;;;;;;;56.47;31.00;;;19.20;99.90;;;;;;6211444;23;20028;-69
2023/09/12 08:02:21;;;;;;;58.15;30.70;;;19.30;99.90;;;;;;6211379;23;20063;-69
2023/09/12 08:04:48;;;;;;;60.33;31.67;;;19.20;99.90;;;;;;6211123;23;20437;-69
2023/09/12 08:07:14;;;;;;;57.35;31.95;;;19.30;99.90;;;;;;6211298;23;20020;-68
2023/09/12 08:09:59;;;;;;;58.60;30.83;;;19.30;99.90;;;;;;6211131;23;20023;-69
2023/09/12 08:12:27;;;;;;;56.10;29.92;;;19.40;99.90;;;;;;6210909;23;20017;-69
2023/09/12 08:14:53;;;;;;;60.95;32.65;;;19.40;99.90;;;;;;6211099;23;20087;-69
2023/09/12 08:17:19;;;;;;;56.70;30.40;;;19.40;99.90;;;;;;6210711;23;20027;-69
2023/09/12 08:19:45;;;;;;;57.75;31.10;;;19.50;99.90;;;;;;6210721;23;20043;-69
2023/09/12 08:22:12;;;;;;;58.20;32.08;;;19.50;99.90;;;;;;6210886;23;20012;-69
2023/09/12 08:24:41;;;;;;;56.58;32.83;;;19.50;99.90;;;;;;6210891;23;20017;-69
2023/09/12 08:27:08;;;;;;;63.38;32.55;;;19.60;99.90;;;;;;6210567;23;20047;-69
2023/09/12 08:29:34;;;;;;;54.05;30.17;;;19.60;99.90;;;;;;6211335;23;20017;-68
2023/09/12 08:32:01;;;;;;;50.55;29.63;;;19.70;99.90;;;;;;6184450;23;20440;-69
2023/09/12 08:34:27;;;;;;;53.60;31.23;;;19.80;99.90;;;;;;6184206;23;20039;-69
2023/09/12 08:36:52;;;;;;;52.63;28.70;;;19.80;99.90;;;;;;6210800;23;20013;-69
2023/09/12 08:39:24;;;;;;;54.38;30.23;;;19.90;99.90;;;;;;6210853;23;20025;-69
2023/09/12 08:41:50;;;;;;;52.53;27.83;;;19.80;99.90;;;;;;6210596;23;20091;-68
2023/09/12 08:44:17;;;;;;;47.72;26.23;;;19.90;99.90;;;;;;6210889;23;20306;-69
2023/09/12 08:46:44;;;;;;;44.90;25.65;;;19.90;99.90;;;;;;6184117;23;20024;-69
2023/09/12 08:49:10;;;;;;;43.00;25.52;;;19.90;99.90;;;;;;6210686;23;20102;-69
2023/09/12 08:51:40;;;;;;;42.10;24.90;;;20.00;99.90;;;;;;6211187;23;20043;-69
2023/09/12 08:54:06;;;;;;;39.03;23.38;;;20.10;99.90;;;;;;6210490;23;20081;-69
2023/09/12 08:56:35;;;;;;;38.15;22.52;;;20.00;99.90;;;;;;6210597;23;20341;-69
2023/09/12 08:59:02;;;;;;;41.70;24.92;;;19.90;99.90;;;;;;6211767;23;20024;-69
2023/09/12 09:01:30;;;;;;;40.65;23.95;;;19.90;99.90;;;;;;6212351;23;20440;-69
2023/09/12 09:03:57;;;;;;;41.17;24.25;;;20.00;99.90;;;;;;6212795;23;20013;-69
2023/09/12 09:06:24;;;;;;;38.65;23.38;;;19.90;99.90;;;;;;6212168;23;20108;-69
2023/09/12 09:08:53;;;;;;;42.80;24.10;;;19.90;99.90;;;;;;6185567;23;20052;-69
2023/09/12 09:11:19;;;;;;;36.42;23.17;;;19.90;99.90;;;;;;6185295;23;20017;-69
2023/09/12 09:13:44;;;;;;;39.85;24.50;;;20.00;99.90;;;;;;6212649;23;20017;-70
2023/09/12 09:16:13;;;;;;;39.83;23.65;;;20.10;99.90;;;;;;6212587;23;20552;-69
2023/09/12 09:18:59;;;;;;;38.70;23.45;;;20.10;99.90;;;;;;6212607;23;20028;-70
2023/09/12 09:21:33;;;;;;;42.30;25.92;;;20.00;99.90;;;;;;6212486;23;20024;-69
2023/09/12 09:24:06;;;;;;;40.45;24.80;;;20.00;99.90;;;;;;6212080;23;20028;-69
2023/09/12 09:26:46;;;;;;;40.63;24.98;;;20.00;99.90;;;;;;6211723;23;20017;-69
2023/09/12 09:29:20;;;;;;;41.30;25.50;;;20.00;99.90;;;;;;6212366;23;20052;-69
2023/09/12 09:31:50;;;;;;;42.03;25.95;;;20.10;99.90;;;;;;6212330;23;20052;-69
2023/09/12 09:34:21;;;;;;;44.67;26.08;;;20.20;99.90;;;;;;6212282;23;20107;-69
2023/09/12 09:36:51;;;;;;;38.08;24.65;;;20.30;99.90;;;;;;6212438;23;20024;-69
2023/09/12 09:39:19;;;;;;;45.70;26.40;;;20.40;99.90;;;;;;6211973;23;20587;-70
2023/09/12 09:41:49;;;;;;;40.88;25.13;;;20.50;99.90;;;;;;6185455;23;20356;-70
2023/09/12 09:44:16;;;;;;;41.85;26.70;;;20.50;99.90;;;;;;6212030;23;20048;-69
2023/09/12 09:46:46;;;;;;;42.35;25.65;;;20.60;99.90;;;;;;6212245;23;20123;-69
2023/09/12 09:49:15;;;;;;;48.47;25.77;;;20.60;99.90;;;;;;6211677;23;20107;-70
2023/09/12 09:51:42;;;;;;;42.08;25.75;;;20.60;99.90;;;;;;6185512;23;20025;-69
2023/09/12 09:54:08;;;;;;;42.88;25.75;;;20.70;99.90;;;;;;6185206;23;20020;-69
2023/09/12 09:56:45;;;;;;;42.72;25.88;;;20.80;99.90;;;;;;6185057;23;20120;-69
2023/09/12 09:59:15;;;;;;;37.05;24.80;;;20.80;99.90;;;;;;6211413;23;20059;-69
2023/09/12 10:01:41;;;;;;;38.67;24.85;;;20.90;99.90;;;;;;6184909;23;20034;-70
2023/09/12 10:04:08;;;;;;;48.83;26.05;;;20.90;99.90;;;;;;6212069;23;20396;-69
2023/09/12 10:06:36;;;;;;;37.53;24.73;;;21.00;99.90;;;;;;6212127;23;20063;-69
2023/09/12 10:09:11;;;;;;;39.55;23.67;;;21.10;99.90;;;;;;6211551;23;20058;-69
2023/09/12 10:11:39;;;;;;;37.28;22.70;;;21.10;99.90;;;;;;6211670;23;20024;-69
2023/09/12 10:14:06;;;;;;;37.38;23.30;;;21.10;99.90;;;;;;6211943;23;20040;-69
2023/09/12 10:16:38;;;;;;;36.40;22.35;;;21.10;99.90;;;;;;6211987;23;20051;-69
2023/09/12 10:19:13;;;;;;;31.50;20.23;;;21.10;99.90;;;;;;6211796;23;20021;-69
2023/09/12 10:21:53;;;;;;;33.78;19.52;;;21.20;99.90;;;;;;6212015;23;20106;-70
2023/09/12 10:24:21;;;;;;;30.80;20.00;;;21.30;99.90;;;;;;6211379;23;20095;-69
2023/09/12 10:26:50;;;;;;;35.05;21.65;;;21.40;99.90;;;;;;6184534;23;20190;-69
2023/09/12 10:29:16;;;;;;;34.90;22.15;;;21.40;99.90;;;;;;6211939;23;20391;-69
2023/09/12 10:31:42;;;;;;;36.30;22.90;;;21.50;99.90;;;;;;6211583;23;20016;-69
2023/09/12 10:34:10;;;;;;;38.72;22.60;;;21.50;99.90;;;;;;6211995;23;20074;-70
2023/09/12 10:36:40;;;;;;;36.78;23.50;;;21.40;99.90;;;;;;6212019;23;20004;-70
2023/09/12 10:39:07;;;;;;;36.25;19.83;;;21.50;99.90;;;;;;6184762;23;20415;-70
2023/09/12 10:41:39;;;;;;;32.15;20.30;;;21.50;99.90;;;;;;6211819;23;20020;-70
2023/09/12 10:44:09;;;;;;;;;;;21.50;99.90;;;;;;6212173;23;20028;-70
2023/09/12 10:46:39;;;;;;;32.53;19.73;;;21.60;99.90;;;;;;6184811;23;19916;-70
2023/09/12 10:49:10;;;;;;;33.65;21.05;;;21.70;99.90;;;;;;6211170;23;20029;-70
2023/09/12 10:51:40;;;;;;;33.72;21.38;;;21.70;99.90;;;;;;6184647;23;20024;-70
2023/09/12 10:54:10;;;;;;;32.83;20.77;;;21.70;99.90;;;;;;6213132;23;20016;-70
2023/09/12 10:56:36;;;;;;;32.95;22.25;;;21.80;99.90;;;;;;6214249;23;20012;-69
2023/09/12 10:59:04;;;;;;;34.88;23.17;;;21.70;99.90;;;;;;6187702;23;20507;-69
2023/09/12 11:01:34;;;;;;;36.90;21.77;;;21.80;99.90;;;;;;6213248;23;20023;-69
2023/09/12 11:04:20;;;;;;;35.72;22.20;;;21.90;99.90;;;;;;6184653;23;20047;-70
2023/09/12 11:06:50;;;;;;;31.95;19.92;;;22.00;99.90;;;;;;6159355;23;20047;-70
2023/09/12 11:09:23;;;;;;;34.67;21.58;;;22.10;99.90;;;;;;6211763;23;20028;-70
2023/09/12 11:12:01;;;;;;;32.67;20.75;;;22.10;99.90;;;;;;6184691;23;20028;-70
2023/09/12 11:14:27;;;;;;;33.60;20.63;;;22.20;99.90;;;;;;6211145;23;20016;-70
2023/09/12 11:17:08;;;;;;;32.58;20.80;;;22.20;99.90;;;;;;6211605;23;20127;-70
2023/09/12 11:19:43;;;;;;;33.42;20.52;;;22.30;99.90;;;;;;6211441;23;20025;-70
2023/09/12 11:22:28;;;;;;;32.33;20.55;;;22.20;99.90;;;;;;6184271;23;20016;-70
2023/09/12 11:24:55;;;;;;;34.28;22.05;;;22.30;99.90;;;;;;6211057;23;20017;-70
2023/09/12 11:27:23;;;;;;;33.92;21.02;;;22.30;99.90;;;;;;6185249;23;20021;-70
2023/09/12 11:29:49;;;;;;;29.85;20.15;;;22.40;99.90;;;;;;6211871;23;20372;-70
2023/09/12 11:32:36;;;;;;;29.02;20.42;;;22.40;99.90;;;;;;6184893;23;20103;-70
2023/09/12 11:35:10;;;;;;;29.67;19.98;;;22.50;99.90;;;;;;6184517;23;20075;-70
2023/09/12 11:37:39;;;;;;;29.60;20.40;;;22.50;99.90;;;;;;6211748;23;20344;-70
2023/09/12 11:40:40;;;;;;;28.98;19.13;;;22.50;99.90;;;;;;6184495;23;20067;-70
2023/09/12 11:43:06;;;;;;;28.98;19.08;;;22.60;99.90;;;;;;6211121;23;20024;-70
2023/09/12 11:45:33;;;;;;;29.48;20.40;;;22.60;99.90;;;;;;6184161;23;20024;-69
2023/09/12 11:47:59;;;;;;;30.45;19.50;;;22.60;99.90;;;;;;6210961;23;20021;-70
2023/09/12 11:50:27;;;;;;;31.83;20.05;;;22.50;99.90;;;;;;6210682;23;20110;-70
2023/09/12 11:53:21;;;;;;;29.20;19.75;;;22.60;99.90;;;;;;6211533;23;20013;-70
2023/09/12 11:55:48;;;;;;;27.52;19.63;;;22.60;99.90;;;;;;6206640;23;20124;-69
2023/09/12 11:58:16;;;;;;;27.13;18.23;;;22.60;99.90;;;;;;6211174;23;20029;-70
2023/09/12 12:00:55;;;;;;;25.95;16.98;;;22.60;99.90;;;;;;6211141;23;20023;-70
2023/09/12 12:03:23;;;;;;;24.08;14.57;;;22.70;99.90;;;;;;6210960;23;20023;-70
2023/09/12 12:05:50;;;;;;;23.65;14.50;;;22.90;99.90;;;;;;6183886;23;20102;-70
2023/09/12 12:08:17;;;;;;;22.30;15.30;;;23.00;99.90;;;;;;6210920;23;20452;-70
2023/09/12 12:10:43;;;;;;;22.95;15.40;;;23.10;99.90;;;;;;6184444;23;20028;-70
2023/09/12 12:13:16;;;;;;;21.27;14.23;;;23.10;99.90;;;;;;6211025;23;20012;-70
2023/09/12 12:15:42;;;;;;;22.40;15.27;;;23.20;99.90;;;;;;6211207;23;20017;-70
2023/09/12 12:18:08;;;;;;;23.95;15.82;;;23.20;99.90;;;;;;6210967;23;20019;-71
2023/09/12 12:20:33;;;;;;;21.40;14.95;;;23.20;99.90;;;;;;6211439;23;20082;-70
2023/09/12 12:22:59;;;;;;;23.77;15.55;;;23.30;99.90;;;;;;6211421;23;20108;-70
2023/09/12 12:25:25;;;;;;;22.05;15.20;;;23.20;99.90;;;;;;6210957;23;20020;-70
2023/09/12 12:27:51;;;;;;;24.13;16.17;;;23.20;99.90;;;;;;6184281;23;20019;-70
2023/09/12 12:30:19;;;;;;;22.98;15.60;;;23.20;99.90;;;;;;6211076;23;20059;-70